createdAt,value
2019-05-18T00:00:08.018Z,75.12
2019-05-18T00:01:07.979Z,75.32
2019-05-18T00:02:07.945Z,75.73
2019-05-18T00:03:07.971Z,75.82
2019-05-18T00:04:07.943Z,75.93
2019-05-18T00:05:07.914Z,75.62
2019-05-18T00:06:07.951Z,75.82
2019-05-18T00:07:07.921Z,75.62
2019-05-18T00:08:07.906Z,76.23
2019-05-18T00:09:07.869Z,75.82
2019-05-18T00:10:07.859Z,75.93
2019-05-18T00:11:07.885Z,76.13
2019-05-18T00:12:07.839Z,75.12
2019-05-18T00:13:07.834Z,75.73
2019-05-18T00:14:07.816Z,75.93
2019-05-18T00:15:07.807Z,76.03
2019-05-18T00:16:07.799Z,76.74
2019-05-18T00:17:17.320Z,76.13
2019-05-18T00:18:08.784Z,75.73
2019-05-18T00:19:07.766Z,76.23
2019-05-18T00:20:07.755Z,75.82
2019-05-18T00:21:07.746Z,76.03
2019-05-18T00:22:07.766Z,75.73
2019-05-18T00:23:07.718Z,76.94
2019-05-18T00:24:07.719Z,76.84
2019-05-18T00:25:07.701Z,76.64
2019-05-18T00:26:07.694Z,76.84
2019-05-18T00:27:07.713Z,76.74
2019-05-18T00:28:07.670Z,76.43
2019-05-18T00:29:07.650Z,76.74
2019-05-18T00:30:07.660Z,76.54
2019-05-18T00:31:07.634Z,76.33
2019-05-18T00:32:07.623Z,76.47
2019-05-18T00:33:07.640Z,76.13
2019-05-18T00:34:07.599Z,76.23
2019-05-18T00:35:07.585Z,76.13
2019-05-18T00:36:07.583Z,76.37
2019-05-18T00:37:07.571Z,76.78
2019-05-18T00:38:07.587Z,76.87
2019-05-18T00:39:07.578Z,77.08
2019-05-18T00:40:07.533Z,76.78
2019-05-18T00:41:07.558Z,77.69
2019-05-18T00:42:07.539Z,77.42
2019-05-18T00:43:07.737Z,77.28
2019-05-18T00:44:07.527Z,77.59
2019-05-18T00:45:07.558Z,76.78
2019-05-18T00:46:07.469Z,77.08
2019-05-18T00:47:07.509Z,77.42
2019-05-18T00:48:07.456Z,77.22
2019-05-18T00:49:07.472Z,77.32
2019-05-18T00:50:07.445Z,77.42
2019-05-18T00:51:07.422Z,77.32
2019-05-18T00:52:07.401Z,77.42
2019-05-18T00:53:07.393Z,77.69
2019-05-18T00:54:07.380Z,77.72
2019-05-18T00:55:07.421Z,77.42
2019-05-18T00:56:07.367Z,77.38
2019-05-18T00:57:07.369Z,77.08
2019-05-18T00:58:07.342Z,77.01
2019-05-18T00:59:07.353Z,77.22
2019-05-18T01:00:07.350Z,78.23
2019-05-18T01:01:07.305Z,78.03
2019-05-18T01:02:07.305Z,78.03
2019-05-18T01:03:07.291Z,78.13
2019-05-18T01:04:07.349Z,77.52
2019-05-18T01:05:07.338Z,78.13
2019-05-18T01:06:07.274Z,78.13
2019-05-18T01:07:07.242Z,78.53
2019-05-18T01:08:07.237Z,78.64
2019-05-18T01:09:07.259Z,77.62
2019-05-18T01:10:07.266Z,78.64
2019-05-18T01:11:07.206Z,78.64
2019-05-18T01:12:07.187Z,78.33
2019-05-18T01:13:07.176Z,78.64
2019-05-18T01:14:07.197Z,78.57
2019-05-18T01:15:07.161Z,78.47
2019-05-18T01:16:07.149Z,78.57
2019-05-18T01:17:07.159Z,78.74
2019-05-18T01:18:07.122Z,78.67
2019-05-18T01:19:07.227Z,79.08
2019-05-18T01:20:07.162Z,79.18
2019-05-18T01:21:07.148Z,78.78
2019-05-18T01:22:07.128Z,79.18
2019-05-18T01:23:07.137Z,79.59
2019-05-18T01:24:07.168Z,79.18
2019-05-18T01:25:07.059Z,79.18
2019-05-18T01:26:07.179Z,79.49
2019-05-18T01:27:07.074Z,79.18
2019-05-18T01:28:07.088Z,79.59
2019-05-18T01:29:07.117Z,79.08
2019-05-18T01:30:07.056Z,79.28
2019-05-18T01:31:07.102Z,79.59
2019-05-18T01:32:07.028Z,79.69
2019-05-18T01:33:07.095Z,79.14
2019-05-18T01:34:07.072Z,78.88
2019-05-18T01:35:07.018Z,78.94
2019-05-18T01:36:06.988Z,78.94
2019-05-18T01:37:07.005Z,78.94
2019-05-18T01:38:07.032Z,78.88
2019-05-18T01:39:07.007Z,78.84
2019-05-18T01:40:06.976Z,78.74
2019-05-18T01:41:06.930Z,78.53
2019-05-18T01:42:06.933Z,78.64
2019-05-18T01:43:06.911Z,78.98
2019-05-18T01:44:06.956Z,78.47
2019-05-18T01:45:16.476Z,79.14
2019-05-18T01:46:07.855Z,79.38
2019-05-18T01:47:06.845Z,79.08
2019-05-18T01:48:14.220Z,80.16
2019-05-18T01:49:07.918Z,79.25
2019-05-18T01:50:06.828Z,79.38
2019-05-18T01:51:06.818Z,79.14
2019-05-18T01:52:06.818Z,79.55
2019-05-18T01:53:06.810Z,79.45
2019-05-18T01:54:06.799Z,79.59
2019-05-18T01:55:06.830Z,79.79
2019-05-18T01:56:06.763Z,79.49
2019-05-18T01:57:06.793Z,78.98
2019-05-18T01:58:06.770Z,79.49
2019-05-18T01:59:06.803Z,79.49
2019-05-18T02:00:06.819Z,79.69
2019-05-18T02:01:06.723Z,79.38
2019-05-18T02:02:06.704Z,79.18
2019-05-18T02:03:06.696Z,79.32
2019-05-18T02:04:06.740Z,80.10
2019-05-18T02:05:06.655Z,79.69
2019-05-18T02:06:06.642Z,79.79
2019-05-18T02:07:06.633Z,79.69
2019-05-18T02:08:06.636Z,80.10
2019-05-18T02:09:06.680Z,80.10
2019-05-18T02:10:06.601Z,80.10
2019-05-18T02:11:06.600Z,79.28
2019-05-18T02:12:06.589Z,79.83
2019-05-18T02:13:06.790Z,80.30
2019-05-18T02:14:06.603Z,80.13
2019-05-18T02:15:06.557Z,80.19
2019-05-18T02:16:06.487Z,80.13
2019-05-18T02:17:06.494Z,80.24
2019-05-18T02:18:06.464Z,80.24
2019-05-18T02:19:06.485Z,80.30
2019-05-18T02:20:06.453Z,80.19
2019-05-18T02:21:06.436Z,80.30
2019-05-18T02:22:06.429Z,80.13
2019-05-18T02:23:06.412Z,80.13
2019-05-18T02:24:06.463Z,80.19
2019-05-18T02:25:06.402Z,80.40
2019-05-18T02:26:06.383Z,79.90
2019-05-18T02:27:06.375Z,80.19
2019-05-18T02:28:06.358Z,80.40
2019-05-18T02:29:06.382Z,80.10
2019-05-18T02:30:06.355Z,80.10
2019-05-18T02:31:06.325Z,80.19
2019-05-18T02:32:06.317Z,80.10
2019-05-18T02:33:06.326Z,80.24
2019-05-18T02:34:06.335Z,80.24
2019-05-18T02:35:06.320Z,79.93
2019-05-18T02:36:06.269Z,79.93
2019-05-18T02:37:06.259Z,80.24
2019-05-18T02:38:06.254Z,79.93
2019-05-18T02:39:06.271Z,80.33
2019-05-18T02:40:06.258Z,80.13
2019-05-18T02:41:06.215Z,80.33
2019-05-18T02:42:06.211Z,79.93
2019-05-18T02:43:06.195Z,80.33
2019-05-18T02:44:06.189Z,80.13
2019-05-18T02:45:06.212Z,80.24
2019-05-18T02:46:06.166Z,80.44
2019-05-18T02:47:06.155Z,79.83
2019-05-18T02:48:06.147Z,80.24
2019-05-18T02:49:06.133Z,80.33
2019-05-18T02:50:06.159Z,80.24
2019-05-18T02:51:06.108Z,80.33
2019-05-18T02:52:06.105Z,80.33
2019-05-18T02:53:06.098Z,80.74
2019-05-18T02:54:06.075Z,81.39
2019-05-18T02:55:06.098Z,81.29
2019-05-18T02:56:06.057Z,81.25
2019-05-18T02:57:06.046Z,80.98
2019-05-18T02:58:06.080Z,80.98
2019-05-18T02:59:06.027Z,80.78
2019-05-18T03:00:06.017Z,80.98
2019-05-18T03:01:06.004Z,81.25
2019-05-18T03:02:05.991Z,81.39
2019-05-18T03:03:05.979Z,81.09
2019-05-18T03:04:06.017Z,81.09
2019-05-18T03:05:05.983Z,80.17
2019-05-18T03:06:05.979Z,80.37
2019-05-18T03:07:05.951Z,80.88
2019-05-18T03:08:05.925Z,80.88
2019-05-18T03:09:05.932Z,80.88
2019-05-18T03:10:05.940Z,80.78
2019-05-18T03:11:05.930Z,81.39
2019-05-18T03:12:05.903Z,80.98
2019-05-18T03:13:05.870Z,81.33
2019-05-18T03:14:06.330Z,81.84
2019-05-18T03:15:05.880Z,81.63
2019-05-18T03:16:05.847Z,82.24
2019-05-18T03:17:05.839Z,81.84
2019-05-18T03:18:05.819Z,81.84
2019-05-18T03:19:08.622Z,81.43
2019-05-18T03:20:05.825Z,81.90
2019-05-18T03:21:05.784Z,81.73
2019-05-18T03:22:05.772Z,81.90
2019-05-18T03:23:05.774Z,81.90
2019-05-18T03:24:05.781Z,81.79
2019-05-18T03:25:05.811Z,81.39
2019-05-18T03:26:05.743Z,81.49
2019-05-18T03:27:05.720Z,81.39
2019-05-18T03:28:05.763Z,81.29
2019-05-18T03:29:05.701Z,81.29
2019-05-18T03:30:05.735Z,81.70
2019-05-18T03:31:05.706Z,81.39
2019-05-18T03:32:05.664Z,81.49
2019-05-18T03:33:05.703Z,81.49
2019-05-18T03:34:05.661Z,81.49
2019-05-18T03:35:05.673Z,81.39
2019-05-18T03:36:05.629Z,81.09
2019-05-18T03:37:05.614Z,81.49
2019-05-18T03:38:05.602Z,81.49
2019-05-18T03:39:05.594Z,81.29
2019-05-18T03:40:05.608Z,81.39
2019-05-18T03:41:05.565Z,81.49
2019-05-18T03:42:05.560Z,81.29
2019-05-18T03:43:05.553Z,81.19
2019-05-18T03:44:05.531Z,81.29
2019-05-18T03:45:05.552Z,81.39
2019-05-18T03:46:05.517Z,81.63
2019-05-18T03:47:05.502Z,82.04
2019-05-18T03:48:05.501Z,81.79
2019-05-18T03:49:05.484Z,81.79
2019-05-18T03:50:06.260Z,81.70
2019-05-18T03:51:05.463Z,82.14
2019-05-18T03:52:05.445Z,81.70
2019-05-18T03:53:05.448Z,81.70
2019-05-18T03:54:05.425Z,81.93
2019-05-18T03:55:05.452Z,81.70
2019-05-18T03:56:05.409Z,82.00
2019-05-18T03:57:05.430Z,81.63
2019-05-18T03:58:05.380Z,82.14
2019-05-18T03:59:05.390Z,81.73
2019-05-18T04:00:05.398Z,81.49
2019-05-18T04:01:05.359Z,82.40
2019-05-18T04:02:05.343Z,81.49
2019-05-18T04:03:05.337Z,81.93
2019-05-18T04:04:05.320Z,81.39
2019-05-18T04:05:05.368Z,81.59
2019-05-18T04:06:05.294Z,81.43
2019-05-18T04:07:05.286Z,81.63
2019-05-18T04:08:05.284Z,82.89
2019-05-18T04:09:06.250Z,83.29
2019-05-18T04:10:05.291Z,83.40
2019-05-18T04:11:05.281Z,83.40
2019-05-18T04:12:05.286Z,83.70
2019-05-18T04:13:05.252Z,83.60
2019-05-18T04:14:08.187Z,82.99
2019-05-18T04:15:05.203Z,83.56
2019-05-18T04:16:05.242Z,82.85
2019-05-18T04:17:05.179Z,82.45
2019-05-18T04:18:05.193Z,82.45
2019-05-18T04:19:05.154Z,83.06
2019-05-18T04:20:05.162Z,82.75
2019-05-18T04:21:05.180Z,82.34
2019-05-18T04:22:05.127Z,82.75
2019-05-18T04:23:05.116Z,82.65
2019-05-18T04:24:05.135Z,82.65
2019-05-18T04:25:05.093Z,81.43
2019-05-18T04:26:05.119Z,82.65
2019-05-18T04:27:05.066Z,82.04
2019-05-18T04:28:05.063Z,82.04
2019-05-18T04:29:05.051Z,82.65
2019-05-18T04:30:05.041Z,82.45
2019-05-18T04:31:05.058Z,82.85
2019-05-18T04:32:05.020Z,82.24
2019-05-18T04:33:05.033Z,82.04
2019-05-18T04:34:04.997Z,82.65
2019-05-18T04:35:04.986Z,83.06
2019-05-18T04:36:05.016Z,83.06
2019-05-18T04:37:04.957Z,82.85
2019-05-18T04:38:04.946Z,82.40
2019-05-18T04:39:04.945Z,82.75
2019-05-18T04:40:04.936Z,81.73
2019-05-18T04:41:04.960Z,82.45
2019-05-18T04:42:04.913Z,82.45
2019-05-18T04:43:04.912Z,82.34
2019-05-18T04:44:04.881Z,82.85
2019-05-18T04:45:04.903Z,82.54
2019-05-18T04:46:04.865Z,83.26
2019-05-18T04:47:04.854Z,83.09
2019-05-18T04:48:04.836Z,82.85
2019-05-18T04:49:04.825Z,82.54
2019-05-18T04:50:06.234Z,83.06
2019-05-18T04:51:04.810Z,83.06
2019-05-18T04:52:04.798Z,82.31
2019-05-18T04:53:04.790Z,82.51
2019-05-18T04:54:04.776Z,82.75
2019-05-18T04:55:04.799Z,82.20
2019-05-18T04:56:04.752Z,82.40
2019-05-18T04:57:04.739Z,81.49
2019-05-18T04:58:04.732Z,81.59
2019-05-18T04:59:04.735Z,81.39
2019-05-18T05:00:04.710Z,81.19
2019-05-18T05:01:04.732Z,81.19
2019-05-18T05:02:04.716Z,80.68
2019-05-18T05:03:04.674Z,80.74
2019-05-18T05:04:04.682Z,80.84
2019-05-18T05:05:04.661Z,80.94
2019-05-18T05:06:04.682Z,80.54
2019-05-18T05:07:04.635Z,80.54
2019-05-18T05:08:04.621Z,80.37
2019-05-18T05:09:04.609Z,80.58
2019-05-18T05:10:04.847Z,81.59
2019-05-18T05:11:04.624Z,81.29
2019-05-18T05:12:04.579Z,80.68
2019-05-18T05:13:04.569Z,81.29
2019-05-18T05:14:04.562Z,81.79
2019-05-18T05:15:04.550Z,81.90
2019-05-18T05:16:04.564Z,81.39
2019-05-18T05:17:04.523Z,81.49
2019-05-18T05:18:04.516Z,82.10
2019-05-18T05:19:04.510Z,81.70
2019-05-18T05:20:18.308Z,81.90
2019-05-18T05:21:05.514Z,81.59
2019-05-18T05:22:04.467Z,81.29
2019-05-18T05:23:04.462Z,81.39
2019-05-18T05:24:04.456Z,81.35
2019-05-18T05:25:04.452Z,81.05
2019-05-18T05:26:04.465Z,81.45
2019-05-18T05:27:04.423Z,81.45
2019-05-18T05:28:04.404Z,79.93
2019-05-18T05:29:04.395Z,79.90
2019-05-18T05:30:04.382Z,80.80
2019-05-18T05:31:04.416Z,81.01
2019-05-18T05:32:04.374Z,80.50
2019-05-18T05:33:04.368Z,79.79
2019-05-18T05:34:04.372Z,80.10
2019-05-18T05:35:04.353Z,80.19
2019-05-18T05:36:04.325Z,79.96
2019-05-18T05:37:04.371Z,79.25
2019-05-18T05:38:04.302Z,79.18
2019-05-18T05:39:04.293Z,79.75
2019-05-18T05:40:04.365Z,78.84
2019-05-18T05:41:04.274Z,78.33
2019-05-18T05:42:04.306Z,78.27
2019-05-18T05:43:04.267Z,79.08
2019-05-18T05:44:04.244Z,78.33
2019-05-18T05:45:04.249Z,78.27
2019-05-18T05:46:04.271Z,78.53
2019-05-18T05:47:04.207Z,78.44
2019-05-18T05:48:04.190Z,78.44
2019-05-18T05:49:04.179Z,78.03
2019-05-18T05:50:04.175Z,78.13
2019-05-18T05:51:04.198Z,77.52
2019-05-18T05:52:04.227Z,77.62
2019-05-18T05:53:04.143Z,77.83
2019-05-18T05:54:04.125Z,77.52
2019-05-18T05:55:04.121Z,77.32
2019-05-18T05:56:04.167Z,77.52
2019-05-18T05:57:04.130Z,77.62
2019-05-18T05:58:04.092Z,77.22
2019-05-18T05:59:04.077Z,76.81
2019-05-18T06:00:04.065Z,77.18
2019-05-18T06:01:04.082Z,76.81
2019-05-18T06:02:04.040Z,77.08
2019-05-18T06:03:04.035Z,77.08
2019-05-18T06:04:04.022Z,77.18
2019-05-18T06:05:04.014Z,77.08
2019-05-18T06:06:03.996Z,76.98
2019-05-18T06:07:04.007Z,77.08
2019-05-18T06:08:03.981Z,76.84
2019-05-18T06:09:03.974Z,76.54
2019-05-18T06:10:03.961Z,76.09
2019-05-18T06:11:03.951Z,74.88
2019-05-18T06:12:03.974Z,74.41
2019-05-18T06:13:03.922Z,74.27
2019-05-18T06:14:03.911Z,74.41
2019-05-18T06:15:03.913Z,73.49
2019-05-18T06:16:03.894Z,73.90
2019-05-18T06:17:03.945Z,73.76
2019-05-18T06:18:03.874Z,73.97
2019-05-18T06:19:03.863Z,73.86
2019-05-18T06:20:03.847Z,74.07
2019-05-18T06:21:03.836Z,73.25
2019-05-18T06:22:03.862Z,72.04
2019-05-18T06:23:03.822Z,71.30
2019-05-18T06:24:03.807Z,71.50
2019-05-18T06:25:05.211Z,71.20
2019-05-18T06:26:03.782Z,70.29
2019-05-18T06:27:03.802Z,69.98
2019-05-18T06:28:03.783Z,69.57
2019-05-18T06:29:03.902Z,69.34
2019-05-18T06:30:03.772Z,69.17
2019-05-18T06:31:03.778Z,68.46
2019-05-18T06:32:03.720Z,69.14
2019-05-18T06:33:03.712Z,68.84
2019-05-18T06:34:03.746Z,68.63
2019-05-18T06:35:03.683Z,67.52
2019-05-18T06:36:03.684Z,67.11
2019-05-18T06:37:03.692Z,67.69
2019-05-18T06:38:03.667Z,67.08
2019-05-18T06:39:03.646Z,67.46
2019-05-18T06:40:03.636Z,66.75
2019-05-18T06:41:03.634Z,66.64
2019-05-18T06:42:03.664Z,66.14
2019-05-18T06:43:03.610Z,66.04
2019-05-18T06:44:03.588Z,66.24
2019-05-18T06:45:03.577Z,66.04
2019-05-18T06:46:03.566Z,65.23
2019-05-18T06:47:03.582Z,65.00
2019-05-18T06:48:03.631Z,64.70
2019-05-18T06:49:03.542Z,65.30
2019-05-18T06:50:03.533Z,64.56
2019-05-18T06:51:07.322Z,64.59
2019-05-18T06:52:03.540Z,64.36
2019-05-18T06:53:03.497Z,63.96
2019-05-18T06:54:03.489Z,64.26
2019-05-18T06:55:03.485Z,64.36
2019-05-18T06:56:03.521Z,64.43
2019-05-18T06:57:03.585Z,63.52
2019-05-18T06:58:03.452Z,63.62
2019-05-18T06:59:03.534Z,62.79
2019-05-18T07:00:03.500Z,63.49
2019-05-18T07:01:03.411Z,62.85
2019-05-18T07:02:03.423Z,62.35
2019-05-18T07:03:03.390Z,61.24
2019-05-18T07:04:03.376Z,61.44
2019-05-18T07:05:03.366Z,61.65
2019-05-18T07:06:03.354Z,61.55
2019-05-18T07:07:03.377Z,61.85
2019-05-18T07:08:03.335Z,61.52
2019-05-18T07:09:03.388Z,60.91
2019-05-18T07:10:03.320Z,60.51
2019-05-18T07:11:03.314Z,59.67
2019-05-18T07:12:03.319Z,59.67
2019-05-18T07:13:03.285Z,59.37
2019-05-18T07:14:03.270Z,58.87
2019-05-18T07:15:03.355Z,59.57
2019-05-18T07:16:03.339Z,58.41
2019-05-18T07:17:03.265Z,58.25
2019-05-18T07:18:03.228Z,56.59
2019-05-18T07:19:03.229Z,53.14
2019-05-18T07:20:03.303Z,50.47
2019-05-18T07:21:03.204Z,46.34
2019-05-18T07:22:03.570Z,43.32
2019-05-18T07:23:03.199Z,41.14
2019-05-18T07:24:03.201Z,38.70
2019-05-18T07:25:03.159Z,37.46
2019-05-18T07:26:03.258Z,36.52
2019-05-18T07:27:03.131Z,34.49
2019-05-18T07:28:03.150Z,33.18
2019-05-18T07:29:05.642Z,33.26
2019-05-18T07:30:03.099Z,32.46
2019-05-18T07:31:03.106Z,31.63
2019-05-18T07:32:03.159Z,30.82
2019-05-18T07:33:03.179Z,31.61
2019-05-18T07:34:03.060Z,31.85
2019-05-18T07:35:03.120Z,34.20
2019-05-18T07:36:03.104Z,35.09
2019-05-18T07:37:03.070Z,37.73
2019-05-18T07:38:03.067Z,37.98
2019-05-18T07:39:03.124Z,38.90
2019-05-18T07:40:03.077Z,38.46
2019-05-18T07:41:03.018Z,37.30
2019-05-18T07:42:03.013Z,35.83
2019-05-18T07:43:03.095Z,33.75
2019-05-18T07:44:03.014Z,32.50
2019-05-18T07:45:03.020Z,31.09
2019-05-18T07:46:03.034Z,29.98
2019-05-18T07:47:02.944Z,29.36
2019-05-18T07:48:03.039Z,29.13
2019-05-18T07:49:02.959Z,27.54
2019-05-18T07:50:02.978Z,26.53
2019-05-18T07:51:02.937Z,26.92
2019-05-18T07:52:02.951Z,27.33
2019-05-18T07:53:02.987Z,26.34
2019-05-18T07:54:02.937Z,25.74
2019-05-18T07:55:02.910Z,25.65
2019-05-18T07:56:02.909Z,25.85
2019-05-18T07:57:02.874Z,25.92
2019-05-18T07:58:02.870Z,25.12
2019-05-18T07:59:02.922Z,23.94
2019-05-18T08:00:02.868Z,23.93
2019-05-18T08:01:02.856Z,24.51
2019-05-18T08:02:02.792Z,24.29
2019-05-18T08:03:03.440Z,23.31
2019-05-18T08:04:02.944Z,23.96
2019-05-18T08:05:02.812Z,22.60
2019-05-18T08:06:02.840Z,22.86
2019-05-18T08:07:02.765Z,21.51
2019-05-18T08:08:02.792Z,22.28
2019-05-18T08:09:02.818Z,21.79
2019-05-18T08:10:02.793Z,23.36
2019-05-18T08:11:02.727Z,23.18
2019-05-18T08:12:02.772Z,23.18
2019-05-18T08:13:02.703Z,23.08
2019-05-18T08:14:02.751Z,22.69
2019-05-18T08:15:02.688Z,22.99
2019-05-18T08:16:02.728Z,22.60
2019-05-18T08:17:02.683Z,22.95
2019-05-18T08:18:02.718Z,22.64
2019-05-18T08:19:02.710Z,21.88
2019-05-18T08:20:02.616Z,22.79
2019-05-18T08:21:02.610Z,23.62
2019-05-18T08:22:02.601Z,23.62
2019-05-18T08:23:02.590Z,23.50
2019-05-18T08:24:02.639Z,23.82
2019-05-18T08:25:02.580Z,23.99
2019-05-18T08:26:02.570Z,22.61
2019-05-18T08:27:02.677Z,23.08
2019-05-18T08:28:02.547Z,23.36
2019-05-18T08:29:02.545Z,22.47
2019-05-18T08:30:02.570Z,21.98
2019-05-18T08:31:02.535Z,21.86
2019-05-18T08:32:02.512Z,22.10
2019-05-18T08:33:02.513Z,23.16
2019-05-18T08:34:02.514Z,22.96
2019-05-18T08:35:02.525Z,23.07
2019-05-18T08:36:02.489Z,22.69
2019-05-18T08:37:02.478Z,23.37
2019-05-18T08:38:02.482Z,22.99
2019-05-18T08:39:02.617Z,23.02
2019-05-18T08:40:02.479Z,24.60
2019-05-18T08:41:02.496Z,23.25
2019-05-18T08:42:02.434Z,23.73
2019-05-18T08:43:02.422Z,23.60
2019-05-18T08:44:02.418Z,22.89
2019-05-18T08:45:02.442Z,21.80
2019-05-18T08:46:02.419Z,22.17
2019-05-18T08:47:02.387Z,22.99
2019-05-18T08:48:02.386Z,22.61
2019-05-18T08:49:02.401Z,23.39
2019-05-18T08:50:02.372Z,23.10
2019-05-18T08:51:02.394Z,23.30
2019-05-18T08:52:08.354Z,22.60
2019-05-18T08:53:03.371Z,22.49
2019-05-18T08:54:02.334Z,21.99
2019-05-18T08:55:02.448Z,22.17
2019-05-18T08:56:02.357Z,21.58
2019-05-18T08:57:02.319Z,21.88
2019-05-18T08:58:02.308Z,21.48
2019-05-18T08:59:02.297Z,21.77
2019-05-18T09:00:02.342Z,22.14
2019-05-18T09:01:02.310Z,21.55
2019-05-18T09:02:02.275Z,20.86
2019-05-18T09:03:02.282Z,21.71
2019-05-18T09:04:02.312Z,20.43
2019-05-18T09:05:04.783Z,20.53
2019-05-18T09:06:02.272Z,20.03
2019-05-18T09:07:02.263Z,19.82
2019-05-18T09:08:02.227Z,19.05
2019-05-18T09:09:02.223Z,19.49
2019-05-18T09:10:02.214Z,20.67
2019-05-18T09:11:02.252Z,20.56
2019-05-18T09:12:02.206Z,19.40
2019-05-18T09:13:02.215Z,20.41
2019-05-18T09:14:02.214Z,21.97
2019-05-18T09:15:02.175Z,22.20
2019-05-18T09:16:02.173Z,22.30
2019-05-18T09:17:02.189Z,21.97
2019-05-18T09:18:04.898Z,21.66
2019-05-18T09:19:02.150Z,21.44
2019-05-18T09:20:02.139Z,20.77
2019-05-18T09:21:02.225Z,20.26
2019-05-18T09:22:02.151Z,19.86
2019-05-18T09:23:02.117Z,18.96
2019-05-18T09:24:02.105Z,18.75
2019-05-18T09:25:02.254Z,18.34
2019-05-18T09:26:02.110Z,19.00
2019-05-18T09:27:02.113Z,19.43
2019-05-18T09:28:02.098Z,18.74
2019-05-18T09:29:02.186Z,19.32
2019-05-18T09:30:02.070Z,19.15
2019-05-18T09:31:02.076Z,19.63
2019-05-18T09:32:02.070Z,19.24
2019-05-18T09:33:02.042Z,19.74
2019-05-18T09:34:02.041Z,19.86
2019-05-18T09:35:02.034Z,19.85
2019-05-18T09:36:02.023Z,19.54
2019-05-18T09:37:02.041Z,19.51
2019-05-18T09:38:02.008Z,18.73
2019-05-18T09:39:02.002Z,19.09
2019-05-18T09:40:02.007Z,17.92
2019-05-18T09:41:01.990Z,18.38
2019-05-18T09:42:02.037Z,17.88
2019-05-18T09:43:02.859Z,17.86
2019-05-18T09:44:02.003Z,17.38
2019-05-18T09:45:02.008Z,17.46
2019-05-18T09:46:01.963Z,16.71
2019-05-18T09:47:02.461Z,16.42
2019-05-18T09:48:01.955Z,16.36
2019-05-18T09:49:02.859Z,17.14
2019-05-18T09:50:01.983Z,17.16
2019-05-18T09:51:01.920Z,17.54
2019-05-18T09:52:02.095Z,17.25
2019-05-18T09:53:01.985Z,17.45
2019-05-18T09:54:01.909Z,17.74
2019-05-18T09:55:01.930Z,17.62
2019-05-18T09:56:01.901Z,17.61
2019-05-18T09:57:01.990Z,17.39
2019-05-18T09:58:01.990Z,17.56
2019-05-18T09:59:01.955Z,16.50
2019-05-18T10:00:02.859Z,16.51
2019-05-18T10:01:01.937Z,17.62
2019-05-18T10:02:01.959Z,17.64
2019-05-18T10:03:01.950Z,18.51
2019-05-18T10:04:01.946Z,18.69
2019-05-18T10:05:01.858Z,17.80
2019-05-18T10:06:02.102Z,16.74
2019-05-18T10:07:01.977Z,16.64
2019-05-18T10:08:02.039Z,16.61
2019-05-18T10:09:02.016Z,15.97
2019-05-18T10:10:02.035Z,16.18
2019-05-18T10:11:01.896Z,16.36
2019-05-18T10:12:02.092Z,16.36
2019-05-18T10:13:01.983Z,16.68
2019-05-18T10:14:01.958Z,17.66
2019-05-18T10:15:02.077Z,16.80
2019-05-18T10:16:01.847Z,18.79
2019-05-18T10:17:01.788Z,18.90
2019-05-18T10:18:01.785Z,19.31
2019-05-18T10:19:01.755Z,20.32
2019-05-18T10:20:16.417Z,20.82
2019-05-18T10:21:01.740Z,20.76
2019-05-18T10:22:01.737Z,22.14
2019-05-18T10:23:12.326Z,22.83
2019-05-18T10:24:02.772Z,22.99
2019-05-18T10:25:01.717Z,23.41
2019-05-18T10:26:01.700Z,24.93
2019-05-18T10:27:01.697Z,25.93
2019-05-18T10:28:01.728Z,26.93
2019-05-18T10:29:01.677Z,27.37
2019-05-18T10:30:01.683Z,28.78
2019-05-18T10:31:01.697Z,29.57
2019-05-18T10:32:01.665Z,29.44
2019-05-18T10:33:01.745Z,28.19
2019-05-18T10:34:01.636Z,28.52
2019-05-18T10:35:01.627Z,29.20
2019-05-18T10:36:01.642Z,29.58
2019-05-18T10:37:01.652Z,29.47
2019-05-18T10:38:01.685Z,29.47
2019-05-18T10:39:01.593Z,29.17
2019-05-18T10:40:01.582Z,27.78
2019-05-18T10:41:02.469Z,28.59
2019-05-18T10:42:01.573Z,29.43
2019-05-18T10:43:01.642Z,30.11
2019-05-18T10:44:01.588Z,30.41
2019-05-18T10:45:01.573Z,30.10
2019-05-18T10:46:02.421Z,29.80
2019-05-18T10:47:01.591Z,29.83
2019-05-18T10:48:01.628Z,29.92
2019-05-18T10:49:01.500Z,31.00
2019-05-18T10:50:01.558Z,31.69
2019-05-18T10:51:01.483Z,30.00
2019-05-18T10:52:01.481Z,30.54
2019-05-18T10:53:01.484Z,31.86
2019-05-18T10:54:01.460Z,31.38
2019-05-18T10:55:01.540Z,31.79
2019-05-18T10:56:01.480Z,32.62
2019-05-18T10:57:01.425Z,34.01
2019-05-18T10:58:01.416Z,34.10
2019-05-18T10:59:01.397Z,33.34
2019-05-18T11:00:01.437Z,33.34
2019-05-18T11:01:01.381Z,34.74
2019-05-18T11:02:01.372Z,34.74
2019-05-18T11:03:01.362Z,34.13
2019-05-18T11:04:01.357Z,34.13
2019-05-18T11:05:01.423Z,33.84
2019-05-18T11:06:01.356Z,34.27
2019-05-18T11:07:01.324Z,34.36
2019-05-18T11:08:01.318Z,34.86
2019-05-18T11:09:01.329Z,35.16
2019-05-18T11:10:01.296Z,34.17
2019-05-18T11:11:01.320Z,34.36
2019-05-18T11:12:01.284Z,34.58
2019-05-18T11:13:01.310Z,34.40
2019-05-18T11:14:01.247Z,35.29
2019-05-18T11:15:01.448Z,35.77
2019-05-18T11:16:01.226Z,35.16
2019-05-18T11:17:01.218Z,34.66
2019-05-18T11:18:01.202Z,34.97
2019-05-18T11:19:01.222Z,35.27
2019-05-18T11:20:01.182Z,36.16
2019-05-18T11:21:01.222Z,34.71
2019-05-18T11:22:01.192Z,35.60
2019-05-18T11:23:01.154Z,35.60
2019-05-18T11:24:01.166Z,36.22
2019-05-18T11:25:01.126Z,36.04
2019-05-18T11:26:01.142Z,36.75
2019-05-18T11:27:01.286Z,36.75
2019-05-18T11:28:01.103Z,36.94
2019-05-18T11:29:01.095Z,37.04
2019-05-18T11:30:01.198Z,36.94
2019-05-18T11:31:01.062Z,37.06
2019-05-18T11:32:01.314Z,37.96
2019-05-18T11:33:01.125Z,37.46
2019-05-18T11:34:01.050Z,37.77
2019-05-18T11:35:01.031Z,37.48
2019-05-18T11:36:01.019Z,37.88
2019-05-18T11:37:03.265Z,37.68
2019-05-18T11:38:01.042Z,37.90
2019-05-18T11:39:00.998Z,38.79
2019-05-18T11:40:02.118Z,38.18
2019-05-18T11:41:00.966Z,37.48
2019-05-18T11:42:00.962Z,36.94
2019-05-18T11:43:00.972Z,36.73
2019-05-18T11:44:00.931Z,36.83
2019-05-18T11:45:00.955Z,37.43
2019-05-18T11:46:00.975Z,36.94
2019-05-18T11:47:00.912Z,37.64
2019-05-18T11:48:01.024Z,38.14
2019-05-18T11:49:00.882Z,37.82
2019-05-18T11:50:00.869Z,37.03
2019-05-18T11:51:00.884Z,36.53
2019-05-18T11:52:00.847Z,36.53
2019-05-18T11:53:00.845Z,36.13
2019-05-18T11:54:00.862Z,36.05
2019-05-18T11:55:00.862Z,36.05
2019-05-18T11:56:00.804Z,36.75
2019-05-18T11:57:00.826Z,35.27
2019-05-18T11:58:00.792Z,35.08
2019-05-18T11:59:00.779Z,34.88
2019-05-18T12:00:00.804Z,35.87
2019-05-18T12:01:00.798Z,34.38
2019-05-18T12:02:00.754Z,34.98
2019-05-18T12:03:00.746Z,35.17
2019-05-18T12:04:00.719Z,35.17
2019-05-18T12:05:00.834Z,35.95
2019-05-18T12:06:00.717Z,35.85
2019-05-18T12:07:00.739Z,36.13
2019-05-18T12:08:00.687Z,35.74
2019-05-18T12:09:00.671Z,34.74
2019-05-18T12:10:00.693Z,35.24
2019-05-18T12:11:00.650Z,35.83
2019-05-18T12:12:00.644Z,35.14
2019-05-18T12:13:00.644Z,34.66
2019-05-18T12:14:00.613Z,35.16
2019-05-18T12:15:00.637Z,35.17
2019-05-18T12:16:00.597Z,35.26
2019-05-18T12:17:00.610Z,35.16
2019-05-18T12:18:00.602Z,35.38
2019-05-18T12:19:00.564Z,35.97
2019-05-18T12:20:00.591Z,35.95
2019-05-18T12:21:00.543Z,35.67
2019-05-18T12:22:00.526Z,34.98
2019-05-18T12:23:00.515Z,36.75
2019-05-18T12:24:14.242Z,36.13
2019-05-18T12:25:01.535Z,34.84
2019-05-18T12:26:00.510Z,34.94
2019-05-18T12:27:00.477Z,35.13
2019-05-18T12:28:00.477Z,34.43
2019-05-18T12:29:00.452Z,34.03
2019-05-18T12:30:00.483Z,34.63
2019-05-18T12:31:02.185Z,33.83
2019-05-18T12:32:00.431Z,33.64
2019-05-18T12:33:00.415Z,34.33
2019-05-18T12:34:00.401Z,33.94
2019-05-18T12:35:00.441Z,33.33
2019-05-18T12:36:00.381Z,33.82
2019-05-18T12:37:00.453Z,33.92
2019-05-18T12:38:00.364Z,33.82
2019-05-18T12:39:00.351Z,34.23
2019-05-18T12:40:00.375Z,34.43
2019-05-18T12:41:00.335Z,33.95
2019-05-18T12:42:00.313Z,33.45
2019-05-18T12:43:00.489Z,34.66
2019-05-18T12:44:00.307Z,34.94
2019-05-18T12:45:00.330Z,34.05
2019-05-18T12:46:00.281Z,33.75
2019-05-18T12:47:00.274Z,34.03
2019-05-18T12:48:00.251Z,32.45
2019-05-18T12:49:00.242Z,33.64
2019-05-18T12:50:00.279Z,33.73
2019-05-18T12:51:00.283Z,33.73
2019-05-18T12:52:00.222Z,33.94